Time;durP1;ratioP1;P1;durP2;ratioP2;P2;SDS_P1;SDS_P2;PMS_P1;PMS_P2;Temp;Humidity;BMP_temperature;BMP_pressure;BME280_temperature;BME280_humidity;BME280_pressure;Samples;Min_cycle;Max_cycle;Signal;HPM_P1;HPM_P2
2023/01/14 00:01:25;;;;;;;2.80;0.90;;;3.70;99.90;;;;;;6162714;23;20213;-75
2023/01/14 00:03:55;;;;;;;2.60;0.80;;;3.60;99.90;;;;;;6163847;23;20248;-77
2023/01/14 00:06:25;;;;;;;1.90;1.00;;;3.60;99.90;;;;;;6165121;23;20193;-77
2023/01/14 00:08:59;;;;;;;1.80;0.70;;;3.60;99.90;;;;;;6165898;23;20182;-78
2023/01/14 00:14:10;;;;;;;1.73;1.00;;;3.60;99.90;;;;;;6166971;23;20641;-75
2023/01/14 00:16:38;;;;;;;2.87;1.07;;;3.80;99.90;;;;;;6165446;23;20205;-76
2023/01/14 00:19:07;;;;;;;3.37;1.00;;;3.80;99.90;;;;;;6165258;23;20216;-76
2023/01/14 00:21:35;;;;;;;3.07;1.20;;;3.80;99.90;;;;;;6165832;23;20209;-76
2023/01/14 00:24:06;;;;;;;2.33;0.83;;;3.80;99.90;;;;;;6165005;23;20197;-77
2023/01/14 00:26:34;;;;;;;2.77;1.20;;;3.90;99.90;;;;;;6157048;23;20264;-76
2023/01/14 00:29:03;;;;;;;1.87;1.07;;;3.90;99.90;;;;;;6156562;23;20178;-79
2023/01/14 00:31:31;;;;;;;2.77;0.80;;;3.90;99.90;;;;;;6156254;23;20268;-76
2023/01/14 00:34:00;;;;;;;2.27;0.87;;;3.90;99.90;;;;;;6156310;23;20178;-78
2023/01/14 00:36:29;;;;;;;4.03;1.10;;;3.90;99.90;;;;;;6156597;23;20190;-78
2023/01/14 00:38:57;;;;;;;1.40;0.90;;;3.90;99.90;;;;;;6157403;23;20181;-77
2023/01/14 00:41:28;;;;;;;2.90;0.97;;;3.90;99.90;;;;;;6157123;23;20185;-75
2023/01/14 00:43:57;;;;;;;1.90;1.00;;;3.90;99.90;;;;;;6156741;23;20189;-74
2023/01/14 00:46:27;;;;;;;2.07;1.00;;;4.00;99.90;;;;;;6157247;23;20221;-76
2023/01/14 00:48:56;;;;;;;2.80;1.07;;;3.90;99.90;;;;;;6157442;23;20182;-78
2023/01/14 00:51:24;;;;;;;1.70;1.00;;;4.00;99.90;;;;;;6157974;23;20178;-78
2023/01/14 00:53:53;;;;;;;2.83;1.10;;;4.00;99.90;;;;;;6158522;23;20572;-79
2023/01/14 00:56:22;;;;;;;1.43;0.83;;;4.00;99.90;;;;;;6156990;23;20185;-77
2023/01/14 00:58:52;;;;;;;2.37;0.90;;;4.00;99.90;;;;;;6156445;23;20263;-79
2023/01/14 01:01:20;;;;;;;2.70;1.10;;;4.00;99.90;;;;;;6157017;23;20202;-78
2023/01/14 01:03:52;;;;;;;3.10;1.10;;;4.00;99.90;;;;;;6156587;23;20205;-79
2023/01/14 01:06:22;;;;;;;0.97;0.90;;;4.00;99.90;;;;;;6157253;23;20268;-78
2023/01/14 01:08:51;;;;;;;1.53;1.10;;;4.00;99.90;;;;;;6157348;23;20244;-79
2023/01/14 01:11:19;;;;;;;2.03;1.23;;;4.00;99.90;;;;;;6157092;23;20186;-76
2023/01/14 01:13:47;;;;;;;2.13;0.80;;;3.90;99.90;;;;;;6157914;23;20201;-79
2023/01/14 01:16:23;;;;;;;2.40;1.13;;;4.00;99.90;;;;;;6158803;23;20181;-78
2023/01/14 01:18:52;;;;;;;1.30;0.70;;;4.00;99.90;;;;;;6174755;23;20181;-76
2023/01/14 01:21:22;;;;;;;2.13;1.00;;;4.00;99.90;;;;;;6181095;23;20192;-78
2023/01/14 01:23:50;;;;;;;3.10;0.90;;;4.00;99.90;;;;;;6181752;23;20208;-76
2023/01/14 01:26:21;;;;;;;2.77;1.00;;;4.00;99.90;;;;;;6182596;23;20208;-75
2023/01/14 01:28:50;;;;;;;1.80;0.80;;;4.00;99.90;;;;;;6170976;23;20170;-78
2023/01/14 01:31:21;;;;;;;4.43;0.97;;;4.00;99.90;;;;;;6162134;23;20185;-76
2023/01/14 01:33:50;;;;;;;2.33;0.80;;;4.00;99.90;;;;;;6160487;23;20241;-78
2023/01/14 01:36:20;;;;;;;1.97;1.00;;;4.00;99.90;;;;;;6160577;23;20256;-79
2023/01/14 01:38:51;;;;;;;3.53;1.00;;;3.90;99.90;;;;;;6160086;23;20213;-77
2023/01/14 01:41:21;;;;;;;3.03;0.90;;;3.90;99.90;;;;;;6157993;23;20264;-78
2023/01/14 01:44:07;;;;;;;3.30;0.90;;;3.90;99.90;;;;;;6157138;23;20530;-79
2023/01/14 01:46:38;;;;;;;5.83;1.40;;;3.90;99.90;;;;;;6158129;23;20176;-77
2023/01/14 01:49:10;;;;;;;5.00;1.10;;;4.00;99.90;;;;;;6158532;23;20642;-76
2023/01/14 01:51:46;;;;;;;1.73;0.80;;;3.90;99.90;;;;;;6157385;23;20240;-78
2023/01/14 01:54:14;;;;;;;2.07;0.97;;;3.90;99.90;;;;;;6157719;23;20188;-77
2023/01/14 01:56:46;;;;;;;3.53;1.20;;;3.80;99.90;;;;;;6157700;23;20221;-79
2023/01/14 01:59:19;;;;;;;3.50;1.00;;;3.70;99.90;;;;;;6157423;23;20189;-77
2023/01/14 02:01:50;;;;;;;3.27;1.30;;;3.70;99.90;;;;;;6158276;23;20527;-76
2023/01/14 02:04:18;;;;;;;3.80;1.00;;;3.60;99.90;;;;;;6157814;23;20709;-78
2023/01/14 02:06:46;;;;;;;5.80;1.20;;;3.50;99.90;;;;;;6157885;23;20196;-79
2023/01/14 02:09:16;;;;;;;2.13;1.00;;;3.50;99.90;;;;;;6157257;23;20179;-78
2023/01/14 02:12:08;;;;;;;4.63;1.20;;;3.40;99.90;;;;;;6157564;23;20174;-77
2023/01/14 02:14:52;;;;;;;4.07;1.23;;;3.50;99.90;;;;;;6157664;23;20202;-79
2023/01/14 02:17:32;;;;;;;3.20;1.00;;;3.50;99.90;;;;;;6157807;23;20630;-78
2023/01/14 02:20:15;;;;;;;4.97;1.20;;;3.60;99.90;;;;;;6158412;23;20193;-77
2023/01/14 02:23:17;;;;;;;2.73;1.20;;;3.60;99.90;;;;;;6156264;23;20170;-78
2023/01/14 02:26:29;;;;;;;3.60;1.17;;;3.60;99.90;;;;;;6157764;23;20212;-74
2023/01/14 02:29:43;;;;;;;3.90;1.20;;;3.70;99.90;;;;;;6122189;23;20186;-76
2023/01/14 02:32:19;;;;;;;2.60;1.20;;;3.70;99.90;;;;;;6095511;23;20186;-79
2023/01/14 02:34:53;;;;;;;3.90;1.40;;;3.70;99.90;;;;;;6146374;23;20181;-77
2023/01/14 02:37:26;;;;;;;3.23;1.20;;;3.60;99.90;;;;;;6157679;23;20222;-78
2023/01/14 02:40:02;;;;;;;4.83;1.30;;;3.60;99.90;;;;;;6157630;23;20351;-77
2023/01/14 02:45:29;;;;;;;4.87;1.20;;;3.50;99.90;;;;;;6157580;23;20197;-76
2023/01/14 02:48:02;;;;;;;5.23;1.40;;;3.40;99.90;;;;;;6157631;23;20173;-75
2023/01/14 02:50:32;;;;;;;4.67;1.00;;;3.40;99.90;;;;;;6157139;23;20562;-76
2023/01/14 02:53:07;;;;;;;4.53;1.33;;;3.40;99.90;;;;;;6166084;23;20177;-79
2023/01/14 02:55:37;;;;;;;3.77;1.10;;;3.40;99.90;;;;;;6156358;23;20252;-78
2023/01/14 02:58:42;;;;;;;4.67;1.20;;;3.50;99.90;;;;;;6156930;23;20217;-78
2023/01/14 03:01:33;;;;;;;5.00;1.40;;;3.50;99.90;;;;;;6154220;23;20221;-80
2023/01/14 03:04:31;;;;;;;6.23;1.13;;;3.60;99.90;;;;;;6156384;23;20205;-79
2023/01/14 03:07:06;;;;;;;7.77;1.73;;;3.60;99.90;;;;;;6156461;23;20205;-78
2023/01/14 03:09:44;;;;;;;4.47;1.73;;;3.60;99.90;;;;;;6156922;23;20170;-78
2023/01/14 03:12:19;;;;;;;6.63;1.47;;;3.60;99.90;;;;;;6156205;23;20201;-77
2023/01/14 03:14:52;;;;;;;5.90;1.53;;;3.60;99.90;;;;;;6156755;23;20300;-79
2023/01/14 03:17:26;;;;;;;6.13;1.60;;;3.60;99.90;;;;;;6156801;23;20170;-79
2023/01/14 03:20:00;;;;;;;4.07;1.40;;;3.60;99.90;;;;;;6156575;23;20260;-80
2023/01/14 03:22:30;;;;;;;9.50;1.60;;;3.60;99.90;;;;;;6156667;23;20165;-77
2023/01/14 03:25:01;;;;;;;6.10;1.40;;;3.60;99.90;;;;;;6156377;23;20198;-77
2023/01/14 03:27:36;;;;;;;3.50;1.20;;;3.60;99.90;;;;;;6157143;23;20202;-78
2023/01/14 03:30:09;;;;;;;5.47;1.67;;;3.60;99.90;;;;;;6155636;23;20165;-80
2023/01/14 03:32:43;;;;;;;6.70;1.50;;;3.60;99.90;;;;;;6156796;23;20284;-79
2023/01/14 03:35:17;;;;;;;6.43;1.30;;;3.60;99.90;;;;;;6156261;23;20173;-80
2023/01/14 03:37:50;;;;;;;4.73;1.50;;;3.60;99.90;;;;;;6156319;23;20189;-78
2023/01/14 03:40:22;;;;;;;3.17;1.20;;;3.60;99.90;;;;;;6156239;23;20273;-76
2023/01/14 03:42:54;;;;;;;5.43;1.70;;;3.70;99.90;;;;;;6156342;23;20184;-76
2023/01/14 03:45:27;;;;;;;6.00;1.30;;;3.70;99.90;;;;;;6156163;23;20284;-76
2023/01/14 03:47:55;;;;;;;5.47;1.60;;;3.70;99.90;;;;;;6156360;23;20201;-78
2023/01/14 03:50:31;;;;;;;5.63;1.50;;;3.70;99.90;;;;;;6156414;23;20232;-77
2023/01/14 03:53:12;;;;;;;7.23;1.50;;;3.80;99.90;;;;;;6156833;23;20196;-78
2023/01/14 03:55:49;;;;;;;6.30;1.53;;;3.80;99.90;;;;;;6156094;23;20603;-80
2023/01/14 03:58:25;;;;;;;3.50;1.03;;;3.80;99.90;;;;;;6156654;23;20169;-78
2023/01/14 04:00:57;;;;;;;5.53;1.63;;;3.80;99.90;;;;;;6160916;23;20256;-78
2023/01/14 04:03:28;;;;;;;5.07;1.40;;;3.80;99.90;;;;;;6156528;23;20204;-79
2023/01/14 04:05:59;;;;;;;5.50;1.33;;;3.90;99.90;;;;;;6156235;23;20200;-77
2023/01/14 04:08:27;;;;;;;5.27;1.20;;;3.90;99.90;;;;;;6156501;23;20263;-76
2023/01/14 04:10:55;;;;;;;4.90;1.30;;;3.90;99.90;;;;;;6156630;23;20213;-77
2023/01/14 04:16:09;;;;;;;4.43;1.40;;;4.00;99.90;;;;;;6156594;23;20177;-77
2023/01/14 04:18:37;;;;;;;5.37;1.47;;;4.00;99.90;;;;;;6155715;23;20220;-75
2023/01/14 04:21:07;;;;;;;5.63;1.50;;;4.00;99.90;;;;;;6155127;23;20264;-77
2023/01/14 04:23:35;;;;;;;5.67;1.37;;;4.00;99.90;;;;;;6154949;23;20177;-74
2023/01/14 04:26:03;;;;;;;2.97;1.23;;;4.00;99.90;;;;;;6155412;23;20206;-77
2023/01/14 04:28:31;;;;;;;2.90;1.13;;;4.20;99.90;;;;;;6157136;23;20264;-80
2023/01/14 04:31:00;;;;;;;5.03;1.50;;;4.00;99.90;;;;;;6157416;23;20182;-80
2023/01/14 04:33:28;;;;;;;4.17;1.40;;;4.10;99.90;;;;;;6157353;23;20212;-80
2023/01/14 04:35:56;;;;;;;4.67;1.50;;;4.10;99.90;;;;;;6156710;23;20181;-79
2023/01/14 04:38:25;;;;;;;3.97;1.13;;;4.10;99.90;;;;;;6156199;23;20646;-78
2023/01/14 04:40:55;;;;;;;4.73;1.30;;;4.10;99.90;;;;;;6156527;23;20182;-78
2023/01/14 04:43:23;;;;;;;6.33;1.20;;;4.20;99.90;;;;;;6155228;23;20177;-76
2023/01/14 04:45:51;;;;;;;4.40;1.43;;;4.20;99.90;;;;;;6156043;23;20208;-77
2023/01/14 04:48:19;;;;;;;4.13;1.20;;;4.20;99.90;;;;;;6156265;23;20228;-78
2023/01/14 04:50:47;;;;;;;5.40;1.30;;;4.20;99.90;;;;;;6157356;23;20185;-80
2023/01/14 04:53:17;;;;;;;6.50;1.70;;;4.20;99.90;;;;;;6158000;23;20189;-78
2023/01/14 04:55:47;;;;;;;4.50;1.40;;;4.20;99.90;;;;;;6158519;23;20177;-79
2023/01/14 04:58:17;;;;;;;5.13;1.40;;;4.30;99.90;;;;;;6159420;23;20261;-78
2023/01/14 05:00:46;;;;;;;5.40;1.53;;;4.20;99.90;;;;;;6159436;23;20626;-78
2023/01/14 05:03:18;;;;;;;5.97;1.53;;;4.30;99.90;;;;;;6158596;23;20202;-77
2023/01/14 05:05:47;;;;;;;5.57;1.40;;;4.30;99.90;;;;;;6158396;23;20205;-80
2023/01/14 05:08:15;;;;;;;4.33;1.20;;;4.30;99.90;;;;;;6157829;23;20181;-79
2023/01/14 05:10:43;;;;;;;8.47;1.60;;;4.30;99.90;;;;;;6157606;23;20257;-80
2023/01/14 05:13:13;;;;;;;6.03;1.53;;;4.30;99.90;;;;;;6157957;23;20273;-79
2023/01/14 05:15:43;;;;;;;4.40;1.20;;;4.30;99.90;;;;;;6158430;23;20185;-78
2023/01/14 05:18:13;;;;;;;8.97;1.83;;;4.30;99.90;;;;;;6158599;23;20185;-79
2023/01/14 05:20:42;;;;;;;5.07;1.63;;;4.30;99.90;;;;;;6158201;23;20170;-80
2023/01/14 05:23:13;;;;;;;4.30;1.23;;;4.30;99.90;;;;;;6157538;23;20515;-80
2023/01/14 05:25:41;;;;;;;5.13;1.47;;;4.30;99.90;;;;;;6157452;23;20197;-80
2023/01/14 05:28:13;;;;;;;5.33;1.40;;;4.30;99.90;;;;;;6158216;23;20188;-80
2023/01/14 05:30:42;;;;;;;6.33;1.50;;;4.30;99.90;;;;;;6157799;23;20213;-80
2023/01/14 05:33:12;;;;;;;6.60;1.60;;;4.30;99.90;;;;;;6157531;23;20191;-80
2023/01/14 05:35:41;;;;;;;4.70;1.40;;;4.30;99.90;;;;;;6158089;23;20162;-77
2023/01/14 05:38:09;;;;;;;4.97;1.40;;;4.30;99.90;;;;;;6158123;23;20185;-77
2023/01/14 05:40:38;;;;;;;7.37;1.80;;;4.30;99.90;;;;;;6157509;23;20208;-76
2023/01/14 05:45:53;;;;;;;5.67;1.40;;;4.30;99.90;;;;;;6157136;23;20240;-76
2023/01/14 05:48:23;;;;;;;5.80;1.40;;;4.20;99.90;;;;;;6157872;23;20230;-79
2023/01/14 05:50:52;;;;;;;8.20;1.60;;;4.20;99.90;;;;;;6157268;23;20642;-78
2023/01/14 05:53:21;;;;;;;6.53;1.63;;;4.20;99.90;;;;;;6156845;23;20733;-79
2023/01/14 05:55:49;;;;;;;5.97;1.53;;;4.10;99.90;;;;;;6157454;23;20558;-78
2023/01/14 05:58:18;;;;;;;4.97;1.60;;;4.10;99.90;;;;;;6156888;23;20561;-80
2023/01/14 06:06:23;;;;;;;7.10;1.70;;;3.90;99.90;;;;;;6156902;23;20212;-81
2023/01/14 06:08:54;;;;;;;6.63;1.50;;;3.90;99.90;;;;;;6156312;23;20630;-77
2023/01/14 06:11:23;;;;;;;6.00;1.60;;;3.90;99.90;;;;;;6156887;23;20677;-79
2023/01/14 06:13:55;;;;;;;7.77;1.73;;;3.90;99.90;;;;;;6156705;23;20517;-80
2023/01/14 06:16:23;;;;;;;4.83;1.60;;;3.90;99.90;;;;;;6156979;23;20592;-79
2023/01/14 06:18:53;;;;;;;8.67;1.77;;;3.90;99.90;;;;;;6157778;23;20217;-79
2023/01/14 06:21:24;;;;;;;5.97;1.50;;;3.90;99.90;;;;;;6157515;23;20307;-81
2023/01/14 06:23:52;;;;;;;6.63;1.80;;;3.90;99.90;;;;;;6156957;23;20194;-80
2023/01/14 06:26:26;;;;;;;6.20;1.90;;;3.90;99.90;;;;;;6157908;23;20216;-81
2023/01/14 06:28:59;;;;;;;6.43;1.60;;;3.90;99.90;;;;;;6158035;23;20165;-77
2023/01/14 06:31:28;;;;;;;6.00;1.90;;;3.80;99.90;;;;;;6157483;23;20244;-76
2023/01/14 06:34:01;;;;;;;5.27;1.60;;;3.80;99.90;;;;;;6158036;23;20186;-76
2023/01/14 06:36:30;;;;;;;6.30;2.70;;;3.80;99.90;;;;;;6158403;23;20212;-79
2023/01/14 06:38:59;;;;;;;6.87;2.53;;;3.80;99.90;;;;;;6160094;23;20263;-79
2023/01/14 06:41:27;;;;;;;7.60;2.00;;;3.80;99.90;;;;;;6156925;23;20185;-79
2023/01/14 06:43:55;;;;;;;4.97;1.90;;;3.70;99.90;;;;;;6157100;23;20260;-79
2023/01/14 06:46:24;;;;;;;8.50;2.10;;;3.70;99.90;;;;;;6156961;23;20757;-79
2023/01/14 06:48:52;;;;;;;3.63;1.40;;;3.60;99.90;;;;;;6156384;23;20181;-78
2023/01/14 06:51:21;;;;;;;4.63;1.63;;;3.60;99.90;;;;;;6156706;23;20200;-80
2023/01/14 06:53:49;;;;;;;6.27;1.43;;;3.50;99.90;;;;;;6156574;23;20272;-78
2023/01/14 06:56:18;;;;;;;4.97;1.90;;;3.40;99.90;;;;;;6157234;23;20264;-79
2023/01/14 06:58:48;;;;;;;8.90;1.63;;;3.40;99.90;;;;;;6154817;23;20242;-79
2023/01/14 07:01:16;;;;;;;10.17;2.10;;;3.30;99.90;;;;;;6156547;23;20256;-75
2023/01/14 07:03:45;;;;;;;5.77;1.60;;;3.20;99.90;;;;;;6157184;23;20182;-75
2023/01/14 07:06:13;;;;;;;10.30;1.90;;;3.20;99.90;;;;;;6157601;23;20543;-75
2023/01/14 07:08:43;;;;;;;11.40;2.43;;;3.10;99.90;;;;;;6156997;23;20182;-74
2023/01/14 07:11:12;;;;;;;5.93;2.00;;;3.10;99.90;;;;;;6157290;23;20212;-74
2023/01/14 07:13:40;;;;;;;8.73;1.90;;;3.00;99.90;;;;;;6156961;23;20198;-79
2023/01/14 07:16:08;;;;;;;5.90;2.10;;;3.00;99.90;;;;;;6157690;23;20249;-76
2023/01/14 07:18:36;;;;;;;7.47;2.03;;;3.00;99.90;;;;;;6156977;23;20186;-76
2023/01/14 07:21:05;;;;;;;9.03;2.40;;;3.10;99.90;;;;;;6155448;23;20185;-76
2023/01/14 07:23:34;;;;;;;7.77;2.47;;;3.10;99.90;;;;;;6156617;23;20278;-77
2023/01/14 07:26:03;;;;;;;6.27;2.13;;;3.10;99.90;;;;;;6156407;23;20205;-77
2023/01/14 07:28:33;;;;;;;7.17;2.60;;;3.20;99.90;;;;;;6155774;23;20264;-77
2023/01/14 07:31:06;;;;;;;6.20;2.47;;;3.20;99.90;;;;;;6156495;23;20186;-75
2023/01/14 07:33:35;;;;;;;10.50;2.60;;;3.20;99.90;;;;;;6157485;23;20189;-76
2023/01/14 07:36:04;;;;;;;8.60;2.27;;;3.20;99.90;;;;;;6157442;23;20186;-76
2023/01/14 07:38:32;;;;;;;8.20;2.27;;;3.30;99.90;;;;;;6161198;23;20186;-74
2023/01/14 07:41:00;;;;;;;6.13;2.30;;;3.30;99.90;;;;;;6156896;23;20195;-76
2023/01/14 07:43:30;;;;;;;6.47;2.60;;;3.30;99.90;;;;;;6155851;23;20219;-77
2023/01/14 07:46:00;;;;;;;9.13;2.40;;;3.40;99.90;;;;;;6155684;23;20205;-78
2023/01/14 07:48:29;;;;;;;11.10;2.30;;;3.40;99.90;;;;;;6155481;23;20188;-78
2023/01/14 07:50:57;;;;;;;6.03;2.20;;;3.50;99.90;;;;;;6156252;23;20200;-79
2023/01/14 07:53:25;;;;;;;7.47;2.50;;;3.50;99.90;;;;;;6155673;23;20182;-74
2023/01/14 07:55:53;;;;;;;7.20;2.67;;;3.70;99.90;;;;;;6155495;23;20653;-76
2023/01/14 07:58:23;;;;;;;8.10;2.30;;;3.80;99.90;;;;;;6155965;23;20184;-81
2023/01/14 08:00:53;;;;;;;9.70;2.40;;;3.90;99.90;;;;;;6155600;23;20178;-81
2023/01/14 08:03:21;;;;;;;4.60;2.30;;;3.90;99.90;;;;;;6155135;23;20284;-78
2023/01/14 08:05:53;;;;;;;8.63;2.03;;;3.90;99.90;;;;;;6155336;23;20642;-76
2023/01/14 08:08:22;;;;;;;6.83;2.00;;;4.00;99.90;;;;;;6155994;23;20182;-78
2023/01/14 08:10:50;;;;;;;8.63;2.40;;;4.40;99.90;;;;;;6155080;23;20198;-75
2023/01/14 08:13:18;;;;;;;6.10;2.23;;;4.80;99.90;;;;;;6155610;23;20224;-75
2023/01/14 08:15:46;;;;;;;6.90;1.97;;;5.20;99.90;;;;;;6155473;23;20185;-75
2023/01/14 08:18:15;;;;;;;6.57;1.90;;;5.70;99.90;;;;;;6155029;23;20188;-77
2023/01/14 08:20:43;;;;;;;5.87;1.90;;;5.80;99.90;;;;;;6155530;23;20276;-78
2023/01/14 08:23:12;;;;;;;6.60;2.07;;;6.00;99.90;;;;;;6157686;23;20189;-76
2023/01/14 08:25:40;;;;;;;6.63;1.93;;;6.10;99.90;;;;;;6157877;23;20249;-77
2023/01/14 08:28:08;;;;;;;5.20;1.70;;;6.20;99.90;;;;;;6156804;23;20296;-76
2023/01/14 08:30:36;;;;;;;3.70;1.67;;;6.00;99.90;;;;;;6157307;23;20327;-74
2023/01/14 08:33:04;;;;;;;7.07;1.70;;;6.20;99.90;;;;;;6157236;23;20189;-79
2023/01/14 08:35:38;;;;;;;6.63;2.10;;;6.00;99.90;;;;;;6157195;23;20260;-76
2023/01/14 08:38:07;;;;;;;7.57;2.10;;;5.80;99.90;;;;;;6157927;23;20221;-76
2023/01/14 08:40:35;;;;;;;6.50;2.20;;;5.40;99.90;;;;;;6156883;23;20235;-79
2023/01/14 08:43:03;;;;;;;8.70;2.40;;;5.20;99.90;;;;;;6157038;23;20189;-77
2023/01/14 08:45:31;;;;;;;6.10;2.43;;;5.00;99.90;;;;;;6157461;23;20223;-75
2023/01/14 08:48:00;;;;;;;7.00;1.97;;;5.00;99.90;;;;;;6157917;23;20685;-78
2023/01/14 08:50:28;;;;;;;6.77;1.90;;;4.90;99.90;;;;;;6158060;23;20272;-80
2023/01/14 08:52:57;;;;;;;9.97;2.13;;;5.00;99.90;;;;;;6158583;23;20217;-78
2023/01/14 08:55:25;;;;;;;6.97;1.60;;;5.10;99.90;;;;;;6158072;23;20181;-77
2023/01/14 08:57:53;;;;;;;7.47;2.07;;;5.20;99.90;;;;;;6156870;23;20177;-77
2023/01/14 09:00:22;;;;;;;7.77;2.03;;;5.20;99.90;;;;;;6156925;23;20264;-77
2023/01/14 09:02:52;;;;;;;7.43;1.97;;;5.30;99.90;;;;;;6156952;23;20221;-78
2023/01/14 09:05:24;;;;;;;5.63;1.60;;;5.30;99.90;;;;;;6157329;23;20264;-80
2023/01/14 09:19:00;;;;;;;5.53;1.80;;;6.20;99.90;;;;;;6158144;23;20166;-76
2023/01/14 09:21:32;;;;;;;10.77;2.17;;;6.30;99.90;;;;;;6158122;23;20186;-75
2023/01/14 09:24:00;;;;;;;6.33;2.03;;;6.40;99.90;;;;;;6157142;23;20188;-75
2023/01/14 09:26:29;;;;;;;5.03;1.77;;;6.40;99.90;;;;;;6156329;23;20725;-74
2023/01/14 09:29:03;;;;;;;6.50;1.80;;;6.40;99.90;;;;;;6157269;23;20205;-74
2023/01/14 09:31:31;;;;;;;6.10;1.77;;;6.40;99.90;;;;;;6157472;23;20219;-74
2023/01/14 09:34:02;;;;;;;6.23;1.80;;;6.60;99.90;;;;;;6157057;23;20181;-76
2023/01/14 09:36:30;;;;;;;5.57;2.10;;;6.80;99.90;;;;;;6157154;23;20181;-74
2023/01/14 09:38:59;;;;;;;7.53;1.97;;;6.70;99.90;;;;;;6156148;23;20520;-75
2023/01/14 09:41:31;;;;;;;8.27;2.10;;;6.90;99.90;;;;;;6157849;23;20260;-75
2023/01/14 09:44:01;;;;;;;7.07;2.00;;;7.00;99.90;;;;;;6158733;23;20611;-75
2023/01/14 09:46:31;;;;;;;7.37;1.83;;;7.10;99.90;;;;;;6157686;23;20183;-75
2023/01/14 09:49:03;;;;;;;7.20;1.80;;;7.20;99.90;;;;;;6158371;23;20198;-74
2023/01/14 09:51:56;;;;;;;6.27;1.80;;;7.10;99.90;;;;;;6158293;23;20551;-73
2023/01/14 09:54:30;;;;;;;8.10;1.83;;;7.30;99.90;;;;;;6157651;23;20170;-74
2023/01/14 09:57:08;;;;;;;4.70;1.70;;;7.60;99.90;;;;;;6157020;23;20268;-75
2023/01/14 09:59:43;;;;;;;4.47;1.50;;;7.90;99.90;;;;;;6156261;23;20248;-77
2023/01/14 10:02:18;;;;;;;4.33;1.70;;;8.40;99.90;;;;;;6157773;23;20276;-76
2023/01/14 10:05:16;;;;;;;4.80;1.50;;;8.70;99.90;;;;;;6157724;23;20189;-77
2023/01/14 10:07:45;;;;;;;4.70;1.67;;;9.10;99.90;;;;;;6156863;23;20208;-77
2023/01/14 10:10:25;;;;;;;5.87;1.80;;;8.80;99.90;;;;;;6158213;23;20181;-75
2023/01/14 10:12:57;;;;;;;6.63;1.67;;;9.00;99.90;;;;;;6167711;23;20189;-76
2023/01/14 10:15:33;;;;;;;3.27;1.27;;;9.40;99.90;;;;;;6154291;23;20198;-75
2023/01/14 10:18:11;;;;;;;4.30;1.40;;;9.50;99.90;;;;;;6158217;23;20546;-75
2023/01/14 10:20:51;;;;;;;3.00;1.40;;;9.80;99.90;;;;;;6155239;23;20188;-76
2023/01/14 10:23:23;;;;;;;4.90;1.50;;;10.00;99.90;;;;;;6156361;23;20174;-75
2023/01/14 10:25:53;;;;;;;4.47;1.60;;;10.20;99.90;;;;;;6156563;23;20170;-74
2023/01/14 10:28:26;;;;;;;5.97;1.47;;;10.20;99.90;;;;;;6156745;23;20531;-74
2023/01/14 10:30:55;;;;;;;3.53;1.40;;;9.40;99.90;;;;;;6156600;23;20192;-73
2023/01/14 10:33:24;;;;;;;3.97;1.50;;;9.00;99.90;;;;;;6157066;23;20222;-74
2023/01/14 10:35:57;;;;;;;3.17;1.23;;;8.80;99.90;;;;;;6156978;23;20188;-75
2023/01/14 10:38:28;;;;;;;2.10;1.10;;;8.50;99.90;;;;;;6156824;23;20208;-75
2023/01/14 10:41:00;;;;;;;5.83;1.27;;;8.50;99.90;;;;;;6157117;23;20527;-75
2023/01/14 10:43:45;;;;;;;4.40;1.77;;;8.60;99.90;;;;;;6156913;23;20173;-75
2023/01/14 10:46:17;;;;;;;4.40;1.53;;;8.90;99.90;;;;;;6157497;23;20603;-75
2023/01/14 10:48:51;;;;;;;4.27;2.90;;;9.10;99.90;;;;;;6156622;23;20544;-75
2023/01/14 10:51:36;;;;;;;3.17;1.73;;;9.20;99.90;;;;;;6156728;23;20170;-75
2023/01/14 10:54:13;;;;;;;3.13;1.23;;;9.60;99.90;;;;;;6156477;23;20265;-76
2023/01/14 10:56:44;;;;;;;1.83;1.30;;;9.60;99.90;;;;;;6156228;23;20610;-75
2023/01/14 10:59:32;;;;;;;3.67;2.30;;;9.60;99.90;;;;;;6157472;23;20212;-76
2023/01/14 11:02:00;;;;;;;8.03;5.07;;;9.30;99.90;;;;;;6156681;23;20210;-74
2023/01/14 11:04:48;;;;;;;4.27;1.97;;;9.30;99.90;;;;;;6156655;23;20232;-75
2023/01/14 11:07:25;;;;;;;2.93;1.20;;;9.40;99.90;;;;;;6156534;23;20280;-75
2023/01/14 11:09:59;;;;;;;5.30;1.40;;;9.10;99.90;;;;;;6156709;23;20756;-75
2023/01/14 11:12:30;;;;;;;2.40;0.93;;;9.40;99.90;;;;;;6156279;23;20548;-77
2023/01/14 11:15:00;;;;;;;5.27;1.50;;;9.40;99.90;;;;;;6156126;23;20177;-75
2023/01/14 11:17:30;;;;;;;3.63;1.37;;;9.50;99.90;;;;;;6156521;23;20170;-76
2023/01/14 11:20:20;;;;;;;2.90;1.10;;;9.40;99.90;;;;;;6156606;23;20177;-75
2023/01/14 11:22:56;;;;;;;2.03;1.13;;;9.60;99.90;;;;;;6156349;23;20180;-76
2023/01/14 11:25:25;;;;;;;3.40;1.20;;;9.80;99.90;;;;;;6156316;23;20261;-75
2023/01/14 11:27:55;;;;;;;1.60;1.23;;;10.00;99.90;;;;;;6155852;23;20243;-75
2023/01/14 11:30:25;;;;;;;3.67;1.60;;;10.00;99.90;;;;;;6156186;23;20178;-75
2023/01/14 11:32:55;;;;;;;3.23;1.60;;;10.10;99.90;;;;;;6157098;23;20225;-75
2023/01/14 11:35:27;;;;;;;2.67;1.60;;;10.40;99.90;;;;;;6156304;23;20184;-76
2023/01/14 11:37:56;;;;;;;3.70;1.83;;;10.70;99.90;;;;;;6155925;23;20244;-75
2023/01/14 11:41:28;;;;;;;4.57;1.70;;;10.60;99.90;;;;;;6156291;23;20252;-77
2023/01/14 11:43:17;;;;;;;2.00;1.60;;;10.70;99.90;;;;;;6155141;23;20181;-77
2023/01/14 11:45:47;;;;;;;1.87;1.20;;;10.50;99.90;;;;;;6155178;23;20182;-76
2023/01/14 11:48:27;;;;;;;3.00;1.30;;;10.20;99.90;;;;;;6157558;23;20198;-78
2023/01/14 11:51:01;;;;;;;2.37;1.50;;;10.10;99.90;;;;;;6157764;23;20182;-76
2023/01/14 11:53:43;;;;;;;3.30;1.40;;;9.90;99.90;;;;;;6156660;23;20181;-73
2023/01/14 11:56:16;;;;;;;3.97;1.50;;;9.90;99.90;;;;;;6156362;23;20217;-75
2023/01/14 11:58:44;;;;;;;2.17;1.40;;;9.80;99.90;;;;;;6156176;23;20162;-74
2023/01/14 12:01:22;;;;;;;3.60;1.50;;;9.70;99.90;;;;;;6156033;23;20185;-76
2023/01/14 12:03:59;;;;;;;2.70;1.37;;;9.60;99.90;;;;;;6156098;23;20184;-75
2023/01/14 12:06:55;;;;;;;1.83;1.40;;;9.60;99.90;;;;;;6155827;23;20201;-77
2023/01/14 12:09:31;;;;;;;2.23;1.50;;;9.20;99.90;;;;;;6156178;23;20219;-77
2023/01/14 12:12:05;;;;;;;2.53;1.57;;;9.20;99.90;;;;;;6156283;23;20185;-77
2023/01/14 12:17:31;;;;;;;2.67;1.70;;;8.80;99.90;;;;;;6156551;23;20188;-76
2023/01/14 12:20:03;;;;;;;2.87;1.67;;;8.80;99.90;;;;;;6156701;23;20161;-75
2023/01/14 12:22:37;;;;;;;4.00;1.70;;;8.70;99.90;;;;;;6155959;23;20178;-75
2023/01/14 12:25:17;;;;;;;4.00;1.77;;;8.70;99.90;;;;;;6156087;23;20169;-77
2023/01/14 12:27:54;;;;;;;1.60;1.50;;;8.80;99.90;;;;;;6155814;23;20200;-75
2023/01/14 12:30:32;;;;;;;2.23;1.60;;;8.80;99.90;;;;;;6156099;23;20712;-77
2023/01/14 12:33:06;;;;;;;2.33;1.57;;;8.70;99.90;;;;;;6155191;23;20208;-76
2023/01/14 12:35:40;;;;;;;3.27;1.60;;;8.80;99.90;;;;;;6156358;23;20165;-77
2023/01/14 12:47:04;;;;;;;2.40;1.80;;;9.10;99.90;;;;;;6147561;23;20504;-77
2023/01/14 12:49:35;;;;;;;2.20;1.57;;;8.90;99.90;;;;;;6155234;23;20677;-77
2023/01/14 12:52:04;;;;;;;1.80;1.40;;;9.10;99.90;;;;;;6155861;23;20189;-74
2023/01/14 12:54:35;;;;;;;2.97;1.67;;;9.10;99.90;;;;;;6156204;23;20189;-75
2023/01/14 12:57:07;;;;;;;5.40;3.60;;;9.20;99.90;;;;;;6156507;23;20181;-77
2023/01/14 12:59:37;;;;;;;4.17;3.60;;;9.30;99.90;;;;;;6156181;23;20606;-74
2023/01/14 13:02:09;;;;;;;2.10;1.50;;;9.30;99.90;;;;;;6156087;23;20262;-74
2023/01/14 13:04:47;;;;;;;3.27;1.60;;;9.90;99.90;;;;;;6156246;23;20224;-75
2023/01/14 13:07:22;;;;;;;2.00;1.40;;;9.90;99.90;;;;;;6154923;23;20276;-75
2023/01/14 13:09:54;;;;;;;2.23;1.30;;;9.60;99.90;;;;;;6156651;23;20228;-75
2023/01/14 13:12:26;;;;;;;2.70;1.70;;;9.20;99.90;;;;;;6157777;23;20217;-76
2023/01/14 13:14:57;;;;;;;3.57;2.53;;;9.10;99.90;;;;;;6158387;23;20188;-74
2023/01/14 13:17:33;;;;;;;1.37;1.10;;;9.10;99.90;;;;;;6157386;23;20170;-75
2023/01/14 13:20:05;;;;;;;1.67;1.10;;;9.00;99.90;;;;;;6157987;23;20527;-76
2023/01/14 13:22:44;;;;;;;2.07;1.30;;;9.00;99.90;;;;;;6156881;23;20480;-76
2023/01/14 13:25:32;;;;;;;4.97;1.63;;;8.90;99.90;;;;;;6157857;23;20191;-76
2023/01/14 13:28:04;;;;;;;1.67;1.40;;;8.90;99.90;;;;;;6156564;23;20221;-76
2023/01/14 13:30:48;;;;;;;2.07;1.40;;;8.90;99.90;;;;;;6154786;23;20233;-79
2023/01/14 13:33:20;;;;;;;1.87;1.30;;;8.80;99.90;;;;;;6156726;23;20173;-75
2023/01/14 13:36:23;;;;;;;1.80;1.50;;;8.80;99.90;;;;;;6157646;23;20332;-76
2023/01/14 13:39:03;;;;;;;2.10;1.50;;;8.90;99.90;;;;;;6066780;23;20172;-74
2023/01/14 13:41:39;;;;;;;1.50;1.40;;;8.90;99.90;;;;;;6065353;23;20706;-75
2023/01/14 13:44:20;;;;;;;3.10;1.60;;;8.80;99.90;;;;;;6120661;23;20672;-76
2023/01/14 13:46:52;;;;;;;6.53;3.73;;;8.80;99.90;;;;;;6156305;23;20185;-77
2023/01/14 13:49:27;;;;;;;1.90;1.60;;;8.80;99.90;;;;;;6156765;23;20265;-75
2023/01/14 13:52:04;;;;;;;2.83;1.60;;;8.90;99.90;;;;;;6156754;23;20173;-74
2023/01/14 13:54:35;;;;;;;2.23;1.43;;;8.90;99.90;;;;;;6156569;23;20246;-77
2023/01/14 13:57:19;;;;;;;3.00;1.40;;;9.00;99.90;;;;;;6158096;23;20213;-75
2023/01/14 13:59:53;;;;;;;1.73;1.37;;;8.90;99.90;;;;;;6161983;23;20614;-74
2023/01/14 14:02:47;;;;;;;2.50;1.40;;;8.80;99.90;;;;;;6161762;23;20209;-74